Time;durP1;ratioP1;P1;durP2;ratioP2;P2;SDS_P1;SDS_P2;PMS_P1;PMS_P2;Temp;Humidity;BMP_temperature;BMP_pressure;BME280_temperature;BME280_humidity;BME280_pressure;Samples;Min_cycle;Max_cycle;Signal;HPM_P1;HPM_P2
2020/12/14 00:01:08;;;;;;;139.68;77.12;;;;;;;2.96;75.26;100403.44;126645;1098;23316;-72
2020/12/14 00:03:36;;;;;;;150.13;81.23;;;;;;;2.98;75.14;100395.22;126676;1098;23428;-72
2020/12/14 00:06:08;;;;;;;153.50;82.90;;;;;;;3.01;75.08;100395.80;126642;1098;23376;-72
2020/12/14 00:08:36;;;;;;;154.85;77.40;;;;;;;3.04;75.07;100400.05;126652;1098;26817;-72
2020/12/14 00:11:04;;;;;;;170.22;92.67;;;;;;;3.08;75.14;100397.92;126729;1098;23395;-72
2020/12/14 00:13:32;;;;;;;193.30;95.47;;;;;;;3.08;75.08;100395.23;126652;1098;27486;-72
2020/12/14 00:16:01;;;;;;;163.10;83.65;;;;;;;3.10;75.31;100404.02;126735;1098;23469;-70
2020/12/14 00:18:29;;;;;;;149.05;77.80;;;;;;;3.09;74.85;100402.31;126743;1098;26902;-70
2020/12/14 00:20:57;;;;;;;145.25;75.67;;;;;;;3.06;75.16;100406.98;126755;1098;23318;-72
2020/12/14 00:23:25;;;;;;;123.85;72.75;;;;;;;3.03;74.69;100401.02;126605;1098;23536;-72
2020/12/14 00:25:54;;;;;;;139.40;71.12;;;;;;;3.01;74.72;100395.80;126675;1098;23370;-72
2020/12/14 00:28:23;;;;;;;128.10;70.42;;;;;;;3.01;75.14;100401.19;126681;1098;23325;-72
2020/12/14 00:30:51;;;;;;;111.85;67.00;;;;;;;3.00;74.98;100393.23;126588;1098;27682;-73
2020/12/14 00:33:19;;;;;;;128.12;68.20;;;;;;;3.01;75.33;100408.42;126704;1099;23378;-71
2020/12/14 00:35:47;;;;;;;116.80;66.25;;;;;;;3.00;75.01;100417.48;126611;1098;26526;-72
2020/12/14 00:38:15;;;;;;;108.27;62.70;;;;;;;3.00;75.34;100410.25;126701;1098;23386;-72
2020/12/14 00:40:43;;;;;;;114.50;64.80;;;;;;;3.00;74.98;100410.25;126744;1098;23329;-75
2020/12/14 00:43:11;;;;;;;107.43;62.03;;;;;;;3.02;75.11;100413.66;126666;1098;28031;-71
2020/12/14 00:45:40;;;;;;;112.60;63.17;;;;;;;3.03;75.03;100423.45;126652;1098;23377;-72
2020/12/14 00:48:08;;;;;;;115.50;66.67;;;;;;;3.02;75.16;100434.38;126745;1098;26434;-73
2020/12/14 00:50:36;;;;;;;110.78;62.05;;;;;;;3.03;75.33;100439.63;126419;1098;23372;-73
2020/12/14 00:53:05;;;;;;;106.47;63.13;;;;;;;3.04;75.43;100446.70;126407;1098;23331;-73
2020/12/14 00:55:33;;;;;;;113.15;66.72;;;;;;;3.07;75.07;100442.87;126675;1099;23395;-74
2020/12/14 00:58:01;;;;;;;103.70;61.25;;;;;;;3.11;75.74;100451.53;126483;1098;23425;-71
2020/12/14 01:00:29;;;;;;;100.30;58.35;;;;;;;3.15;75.17;100451.11;126631;1098;23365;-71
2020/12/14 01:02:58;;;;;;;98.22;58.48;;;;;;;3.18;75.28;100449.97;126606;1098;23441;-71
2020/12/14 01:05:26;;;;;;;111.32;59.93;;;;;;;3.21;75.49;100455.09;126741;1098;26433;-72
2020/12/14 01:07:54;;;;;;;102.65;60.30;;;;;;;3.25;75.55;100456.52;126690;1098;23326;-72
2020/12/14 01:10:22;;;;;;;106.15;60.20;;;;;;;3.28;75.62;100450.83;126707;1098;23310;-73
2020/12/14 01:12:51;;;;;;;96.73;59.57;;;;;;;3.33;75.38;100456.66;126697;1098;23395;-73
2020/12/14 01:15:19;;;;;;;100.67;60.52;;;;;;;3.35;75.42;100451.98;126656;1098;26497;-72
2020/12/14 01:17:47;;;;;;;98.55;59.23;;;;;;;3.36;74.98;100447.43;126611;1099;23448;-73
2020/12/14 01:20:15;;;;;;;108.85;60.35;;;;;;;3.37;75.02;100455.39;126688;1099;26826;-73
2020/12/14 01:22:43;;;;;;;97.62;57.93;;;;;;;3.36;75.21;100450.97;126604;1099;25038;-72
2020/12/14 01:25:12;;;;;;;104.40;59.93;;;;;;;3.36;75.11;100452.83;126667;1098;26823;-72
2020/12/14 01:27:40;;;;;;;103.92;59.60;;;;;;;3.36;75.30;100458.22;126672;1098;27470;-75
2020/12/14 01:30:08;;;;;;;99.50;57.55;;;;;;;3.34;75.11;100455.66;126721;1098;23530;-72
2020/12/14 01:32:36;;;;;;;92.53;56.68;;;;;;;3.36;75.49;100459.06;126689;1099;23359;-71
2020/12/14 01:35:05;;;;;;;101.60;58.58;;;;;;;3.38;75.13;100462.47;126702;1099;26814;-72
2020/12/14 01:37:33;;;;;;;90.55;55.40;;;;;;;3.42;75.37;100463.89;126675;1098;27142;-72
2020/12/14 01:40:02;;;;;;;99.72;60.43;;;;;;;3.42;75.12;100446.87;126732;1098;26805;-72
2020/12/14 01:42:30;;;;;;;104.75;59.23;;;;;;;3.42;74.93;100455.80;126808;1098;27712;-72
2020/12/14 01:44:58;;;;;;;98.17;60.38;;;;;;;3.42;75.39;100469.28;126657;1099;26552;-72
2020/12/14 01:47:38;;;;;;;101.40;59.85;;;;;;;3.46;74.99;100465.31;126738;1098;24553;-71
2020/12/14 01:50:07;;;;;;;100.47;61.18;;;;;;;3.48;75.16;100465.17;126765;1098;23514;-72
2020/12/14 01:52:35;;;;;;;101.38;60.43;;;;;;;3.47;75.29;100456.20;126759;1099;24971;-72
2020/12/14 01:55:05;;;;;;;103.83;60.90;;;;;;;3.46;74.85;100465.31;126747;1098;23345;-72
2020/12/14 01:57:37;;;;;;;106.37;61.95;;;;;;;3.46;74.78;100459.08;126733;1098;26434;-73
2020/12/14 02:00:09;;;;;;;103.83;56.48;;;;;;;3.42;74.72;100454.95;126693;1099;23477;-71
2020/12/14 02:02:38;;;;;;;113.00;62.30;;;;;;;3.38;74.70;100461.63;126616;1099;23450;-71
2020/12/14 02:05:07;;;;;;;104.50;62.48;;;;;;;3.38;75.07;100461.63;126738;1098;26949;-72
2020/12/14 02:07:36;;;;;;;110.13;61.53;;;;;;;3.37;75.18;100452.69;126728;1098;23389;-73
2020/12/14 02:10:04;;;;;;;110.72;61.88;;;;;;;3.36;74.82;100447.43;126691;1098;24712;-71
2020/12/14 02:12:32;;;;;;;105.60;60.78;;;;;;;3.33;75.10;100448.58;126699;1098;23382;-73
2020/12/14 02:15:00;;;;;;;104.53;59.58;;;;;;;3.28;74.87;100440.88;126702;1098;23337;-71
2020/12/14 02:17:28;;;;;;;87.47;51.10;;;;;;;3.26;75.21;100436.64;126768;1098;23409;-72
2020/12/14 02:19:57;;;;;;;90.40;53.98;;;;;;;3.23;75.06;100439.63;126644;1098;23530;-71
2020/12/14 02:22:27;;;;;;;97.80;56.88;;;;;;;3.19;74.90;100438.20;126708;1098;26832;-72
2020/12/14 02:25:05;;;;;;;94.52;54.65;;;;;;;3.17;74.77;100427.55;126700;1098;26782;-72
2020/12/14 02:27:36;;;;;;;94.75;55.33;;;;;;;3.15;75.33;100434.09;126754;1098;23327;-71
2020/12/14 02:30:06;;;;;;;97.05;63.23;;;;;;;3.12;75.21;100427.14;126812;1098;23318;-71
2020/12/14 02:32:35;;;;;;;101.33;60.38;;;;;;;3.11;75.26;100432.67;126843;1098;23494;-72
2020/12/14 02:35:03;;;;;;;103.83;59.18;;;;;;;3.14;75.31;100427.02;126738;1099;23328;-73
2020/12/14 02:37:32;;;;;;;102.00;61.23;;;;;;;3.14;75.58;100429.70;126728;1098;23325;-72
2020/12/14 02:40:00;;;;;;;102.35;62.35;;;;;;;3.15;75.41;100436.78;126813;1098;23322;-73
2020/12/14 02:42:29;;;;;;;97.67;58.40;;;;;;;3.17;75.66;100437.50;126743;1098;23327;-73
2020/12/14 02:44:57;;;;;;;97.62;57.60;;;;;;;3.17;75.20;100440.19;126608;1099;24962;-71
2020/12/14 02:47:25;;;;;;;100.33;62.20;;;;;;;3.17;75.77;100440.19;126738;1098;23328;-73
2020/12/14 02:49:53;;;;;;;101.33;59.38;;;;;;;3.17;75.81;100445.59;126701;1099;23570;-71
2020/12/14 02:52:21;;;;;;;99.03;58.30;;;;;;;3.20;75.76;100438.08;126689;1098;23324;-72
2020/12/14 02:54:50;;;;;;;93.17;57.65;;;;;;;3.22;75.69;100437.91;126622;1098;27982;-73
2020/12/14 02:57:18;;;;;;;98.53;60.27;;;;;;;3.24;75.71;100449.41;126691;1098;23350;-72
2020/12/14 02:59:46;;;;;;;94.45;56.68;;;;;;;3.26;75.87;100452.81;126632;1098;23382;-71
2020/12/14 03:02:14;;;;;;;94.62;59.18;;;;;;;3.25;75.67;100440.34;126733;1098;23395;-72
2020/12/14 03:04:42;;;;;;;96.47;60.33;;;;;;;3.24;75.56;100452.10;126723;1098;23365;-72
2020/12/14 03:07:11;;;;;;;101.42;59.77;;;;;;;3.22;75.87;100459.48;126703;1098;23325;-73
2020/12/14 03:09:39;;;;;;;89.40;56.83;;;;;;;3.22;75.43;100462.17;126758;1098;26471;-73
2020/12/14 03:12:07;;;;;;;96.70;59.65;;;;;;;3.23;75.50;100469.28;126690;1098;25184;-73
2020/12/14 03:14:35;;;;;;;98.15;60.95;;;;;;;3.31;75.79;100457.78;126653;1098;23327;-75
2020/12/14 03:17:03;;;;;;;107.07;64.25;;;;;;;3.33;76.09;100467.45;126637;1099;23554;-74
2020/12/14 03:19:32;;;;;;;101.17;61.50;;;;;;;3.35;75.49;100464.59;126670;1099;23363;-73
2020/12/14 03:22:01;;;;;;;109.37;65.65;;;;;;;3.36;75.82;100459.06;126743;1098;23382;-73
2020/12/14 03:24:29;;;;;;;105.85;64.22;;;;;;;3.36;75.81;100453.67;126701;1098;26258;-73
2020/12/14 03:26:57;;;;;;;105.25;61.42;;;;;;;3.38;75.44;100458.93;126745;1098;23342;-73
2020/12/14 03:29:25;;;;;;;98.50;60.45;;;;;;;3.39;75.58;100450.70;126660;1098;23424;-73
2020/12/14 03:31:53;;;;;;;96.50;60.87;;;;;;;3.42;75.73;100458.50;126687;1098;26788;-72
2020/12/14 03:34:21;;;;;;;99.97;60.70;;;;;;;3.43;75.83;100460.19;126635;1098;23325;-74
2020/12/14 03:36:50;;;;;;;97.10;62.27;;;;;;;3.50;76.12;100452.40;126699;1098;23339;-74
2020/12/14 03:39:18;;;;;;;106.30;62.67;;;;;;;3.52;75.38;100452.23;126731;1098;23329;-75
2020/12/14 03:41:50;;;;;;;97.78;59.40;;;;;;;3.46;75.29;100443.73;126669;1098;23386;-72
2020/12/14 03:44:19;;;;;;;;;;;;;;;3.41;75.25;100456.78;126751;1099;23332;-73
2020/12/14 03:46:47;;;;;;;99.45;58.50;;;;;;;3.37;75.47;100455.39;126654;1099;25709;-73
2020/12/14 03:49:15;;;;;;;97.97;60.78;;;;;;;3.39;75.38;100455.22;126720;1098;26786;-74
2020/12/14 03:51:43;;;;;;;94.90;58.38;;;;;;;3.38;75.68;100462.47;126720;1098;24814;-74
2020/12/14 03:54:12;;;;;;;98.67;58.07;;;;;;;3.37;75.89;100474.27;126719;1098;26571;-74
2020/12/14 03:56:40;;;;;;;96.53;61.58;;;;;;;3.37;75.58;100468.88;126570;1099;25197;-74
2020/12/14 03:59:08;;;;;;;110.85;59.58;;;;;;;3.37;75.60;100468.00;126681;1098;23321;-73
2020/12/14 04:01:36;;;;;;;103.02;60.20;;;;;;;3.34;75.38;100466.44;126738;1098;23556;-73
2020/12/14 04:04:04;;;;;;;92.62;57.45;;;;;;;3.32;75.53;100467.59;126722;1099;25011;-72
2020/12/14 04:06:33;;;;;;;91.17;54.85;;;;;;;3.28;75.79;100475.09;126657;1099;23423;-72
2020/12/14 04:09:01;;;;;;;97.33;55.90;;;;;;;3.26;75.45;100468.99;126633;1099;23379;-71
2020/12/14 04:11:29;;;;;;;90.28;58.15;;;;;;;3.26;75.65;100474.38;126670;1098;23436;-73
2020/12/14 04:13:57;;;;;;;97.05;58.92;;;;;;;3.23;75.55;100470.13;126671;1098;23472;-72
2020/12/14 04:16:26;;;;;;;102.13;58.07;;;;;;;3.23;75.44;100489.00;126594;1098;26372;-72
2020/12/14 04:18:54;;;;;;;94.20;57.60;;;;;;;3.24;76.01;100482.63;126726;1098;23381;-72
2020/12/14 04:21:22;;;;;;;100.78;56.58;;;;;;;3.24;75.98;100488.03;126747;1098;23388;-72
2020/12/14 04:23:51;;;;;;;92.62;59.48;;;;;;;3.26;75.78;100490.56;126639;1098;26439;-71
2020/12/14 04:26:19;;;;;;;100.95;63.52;;;;;;;3.26;75.76;100486.05;126757;1098;26529;-71
2020/12/14 04:28:47;;;;;;;93.07;59.05;;;;;;;3.24;75.42;100497.94;126655;1098;23332;-72
2020/12/14 04:31:18;;;;;;;103.25;61.73;;;;;;;3.20;75.78;100497.38;126740;1099;27451;-71
2020/12/14 04:33:47;;;;;;;96.57;61.77;;;;;;;3.19;75.79;100497.52;126620;1098;23774;-72
2020/12/14 04:36:15;;;;;;;97.15;62.60;;;;;;;3.17;75.93;100486.02;126728;1098;25038;-71
2020/12/14 04:38:44;;;;;;;105.00;61.80;;;;;;;3.15;75.58;100504.17;126751;1098;26816;-73
2020/12/14 04:41:12;;;;;;;92.75;57.75;;;;;;;3.13;75.81;100496.22;126740;1098;23340;-72
2020/12/14 04:43:42;;;;;;;99.72;59.03;;;;;;;3.11;75.82;100497.36;126669;1098;23546;-72
2020/12/14 04:46:11;;;;;;;106.12;62.58;;;;;;;3.11;75.86;100500.90;126701;1098;23381;-72
2020/12/14 04:48:39;;;;;;;97.20;58.95;;;;;;;3.09;75.94;100504.73;126669;1098;23332;-71
2020/12/14 04:51:08;;;;;;;100.67;58.85;;;;;;;3.07;75.68;100507.56;126617;1098;23579;-72
2020/12/14 04:53:41;;;;;;;102.47;59.03;;;;;;;3.05;75.87;100509.54;126656;1098;23376;-72
2020/12/14 04:56:10;;;;;;;102.35;59.35;;;;;;;3.04;76.22;100508.70;126709;1098;23480;-72
2020/12/14 04:58:39;;;;;;;95.45;55.35;;;;;;;2.99;75.98;100502.03;126653;1098;26811;-71
2020/12/14 05:01:07;;;;;;;93.25;57.45;;;;;;;3.02;75.85;100507.14;126678;1098;23463;-71
2020/12/14 05:03:36;;;;;;;100.03;59.60;;;;;;;3.01;76.16;100508.98;126613;1098;23322;-71
2020/12/14 05:06:04;;;;;;;96.02;56.05;;;;;;;2.99;76.27;100510.97;126456;1098;23389;-72
2020/12/14 05:08:32;;;;;;;88.05;54.90;;;;;;;2.99;76.48;100519.05;126618;1098;23363;-72
2020/12/14 05:11:01;;;;;;;93.42;55.63;;;;;;;2.95;76.38;100506.00;126698;1098;23384;-71
2020/12/14 05:13:29;;;;;;;94.35;57.05;;;;;;;2.93;76.23;100508.82;126706;1098;23325;-71
2020/12/14 05:15:57;;;;;;;119.25;72.60;;;;;;;2.92;76.33;100520.58;126731;1098;26402;-71
2020/12/14 05:18:26;;;;;;;109.15;67.55;;;;;;;2.92;76.56;100522.43;126772;1099;25611;-71
2020/12/14 05:21:04;;;;;;;96.75;61.90;;;;;;;2.93;76.45;100516.91;126781;1098;23329;-70
2020/12/14 05:23:32;;;;;;;106.12;63.08;;;;;;;2.94;76.65;100510.52;126742;1098;23308;-69
2020/12/14 05:26:14;;;;;;;103.53;60.53;;;;;;;2.95;76.68;100524.86;126542;1098;23392;-72
2020/12/14 05:28:43;;;;;;;103.38;59.60;;;;;;;2.95;76.69;100520.32;126570;1098;23376;-70
2020/12/14 05:31:18;;;;;;;101.45;59.58;;;;;;;2.95;76.54;100516.78;126685;1098;24590;-70
2020/12/14 05:33:46;;;;;;;97.05;61.73;;;;;;;2.94;76.91;100513.20;126690;1098;23392;-71
2020/12/14 05:36:16;;;;;;;99.28;58.78;;;;;;;2.95;76.93;100523.02;126777;1098;23336;-71
2020/12/14 05:38:44;;;;;;;103.12;59.05;;;;;;;2.95;76.45;100531.09;126767;1098;23392;-70
2020/12/14 05:41:21;;;;;;;93.45;59.70;;;;;;;2.97;76.68;100521.03;126727;1099;23386;-71
2020/12/14 05:43:57;;;;;;;94.67;58.00;;;;;;;2.97;76.77;100528.27;126724;1098;26468;-71
2020/12/14 05:46:25;;;;;;;93.87;55.50;;;;;;;2.97;76.88;100526.42;126708;1098;23324;-71
2020/12/14 05:48:55;;;;;;;97.47;59.10;;;;;;;2.98;76.97;100529.96;126758;1098;23379;-72
2020/12/14 05:51:25;;;;;;;96.40;58.23;;;;;;;3.01;76.64;100535.09;126645;1098;26379;-71
2020/12/14 05:54:03;;;;;;;101.02;57.65;;;;;;;3.03;77.19;100533.95;126554;1098;23526;-71
2020/12/14 05:56:32;;;;;;;96.78;60.30;;;;;;;3.05;76.97;100531.98;126688;1098;26453;-71
2020/12/14 05:59:03;;;;;;;112.00;64.25;;;;;;;3.09;76.92;100531.69;126692;1099;23379;-72
2020/12/14 06:01:32;;;;;;;100.95;61.70;;;;;;;3.10;76.67;100528.86;126747;1098;23322;-71
2020/12/14 06:04:02;;;;;;;105.22;63.75;;;;;;;3.11;76.80;100535.09;126695;1098;23425;-72
2020/12/14 06:06:30;;;;;;;97.88;59.58;;;;;;;3.13;76.87;100538.51;126667;1098;23477;-72
2020/12/14 06:09:04;;;;;;;109.15;69.03;;;;;;;3.17;76.75;100539.94;126680;1098;27507;-72
2020/12/14 06:11:37;;;;;;;102.85;61.33;;;;;;;3.18;76.86;100539.81;126705;1098;23530;-71
2020/12/14 06:14:09;;;;;;;108.80;64.30;;;;;;;3.21;76.98;100539.52;126618;1098;23340;-70
2020/12/14 06:16:46;;;;;;;108.10;66.70;;;;;;;3.21;76.92;100541.37;126778;1098;23363;-71
2020/12/14 06:19:15;;;;;;;101.35;62.80;;;;;;;3.20;76.96;100543.22;126779;1098;23326;-70
2020/12/14 06:21:53;;;;;;;119.08;69.72;;;;;;;3.20;77.04;100547.73;126767;1098;26651;-71
2020/12/14 06:24:23;;;;;;;110.00;71.10;;;;;;;3.23;77.10;100550.17;126698;1098;27737;-70
2020/12/14 06:26:53;;;;;;;143.30;94.67;;;;;;;3.26;76.84;100555.27;126661;1098;23341;-70
2020/12/14 06:29:37;;;;;;;129.63;71.00;;;;;;;3.29;77.13;100565.80;126465;1099;23546;-72
2020/12/14 06:32:36;;;;;;;127.70;69.67;;;;;;;3.32;76.86;100564.66;126615;1099;23625;-71
2020/12/14 06:35:14;;;;;;;127.97;70.65;;;;;;;3.34;76.82;100563.52;126912;1098;23327;-71
2020/12/14 06:38:09;;;;;;;112.10;66.42;;;;;;;3.36;76.67;100560.69;126835;1099;23327;-72
2020/12/14 06:40:59;;;;;;;123.07;70.17;;;;;;;3.36;77.18;100566.09;126805;1098;23319;-69
2020/12/14 06:43:34;;;;;;;116.97;64.75;;;;;;;3.37;76.77;100563.26;126804;1098;23344;-70
2020/12/14 06:46:03;;;;;;;117.10;64.90;;;;;;;3.41;76.72;100558.41;126821;1099;23367;-70
2020/12/14 06:48:46;;;;;;;114.70;67.32;;;;;;;3.43;77.32;100565.37;126840;1099;23479;-71
2020/12/14 06:51:16;;;;;;;124.27;66.60;;;;;;;3.46;76.83;100565.11;126969;1099;23348;-69
2020/12/14 06:53:52;;;;;;;112.03;66.50;;;;;;;3.47;76.93;100561.40;126978;1099;23361;-70
2020/12/14 06:56:32;;;;;;;103.62;60.45;;;;;;;3.47;77.09;100557.86;126821;1098;26826;-76
2020/12/14 06:59:00;;;;;;;113.37;61.95;;;;;;;3.52;77.00;100554.73;126685;1098;23328;-75
2020/12/14 07:01:40;;;;;;;106.90;62.90;;;;;;;3.54;77.09;100547.35;126558;1099;23342;-74
2020/12/14 07:04:17;;;;;;;101.65;61.02;;;;;;;3.52;76.55;100554.73;126473;1098;26789;-74
2020/12/14 07:06:45;;;;;;;104.70;64.80;;;;;;;3.48;76.56;100563.13;126859;1098;23356;-74
2020/12/14 07:09:38;;;;;;;135.70;89.50;;;;;;;3.51;77.13;100569.23;126678;1099;23519;-75
2020/12/14 07:12:09;;;;;;;137.55;75.32;;;;;;;3.53;76.98;100569.94;126828;1098;23424;-78
2020/12/14 07:14:49;;;;;;;138.90;67.37;;;;;;;3.56;76.73;100575.88;126902;1098;26433;-75
2020/12/14 07:17:25;;;;;;;105.47;63.90;;;;;;;3.60;77.00;100560.28;126714;1098;23431;-75
2020/12/14 07:19:59;;;;;;;124.87;70.95;;;;;;;3.63;76.63;100574.34;126520;1098;23476;-77
2020/12/14 07:22:49;;;;;;;118.90;68.37;;;;;;;3.68;77.17;100571.22;126539;1098;23598;-76
2020/12/14 07:25:23;;;;;;;131.30;70.20;;;;;;;3.71;76.69;100570.92;126655;1099;23328;-74
2020/12/14 07:27:52;;;;;;;123.67;72.75;;;;;;;3.71;76.80;100579.02;126718;1098;27135;-75
2020/12/14 07:30:21;;;;;;;125.27;69.72;;;;;;;3.73;76.47;100573.48;126670;1098;23469;-74
2020/12/14 07:32:49;;;;;;;118.87;68.85;;;;;;;3.72;76.90;100567.25;126669;1099;26817;-75
2020/12/14 07:35:17;;;;;;;118.75;65.10;;;;;;;3.72;76.24;100569.95;126714;1099;26433;-77
2020/12/14 07:37:52;;;;;;;140.60;74.40;;;;;;;3.69;76.50;100572.91;126726;1099;23382;-75
2020/12/14 07:40:20;;;;;;;131.90;73.10;;;;;;;3.69;76.32;100583.70;126430;1098;23328;-76
2020/12/14 07:42:49;;;;;;;129.78;72.22;;;;;;;3.70;76.90;100574.63;126684;1098;23389;-76
2020/12/14 07:45:25;;;;;;;127.00;74.53;;;;;;;3.71;76.52;100567.38;126563;1098;23473;-76
2020/12/14 07:47:54;;;;;;;130.22;77.67;;;;;;;3.73;76.72;100562.70;126642;1098;26744;-76
2020/12/14 07:50:27;;;;;;;126.13;72.00;;;;;;;3.75;76.41;100563.41;126637;1098;23524;-75
2020/12/14 07:52:55;;;;;;;121.72;70.87;;;;;;;3.73;76.56;100560.00;126620;1098;23320;-75
2020/12/14 07:55:28;;;;;;;123.00;73.00;;;;;;;3.72;76.61;100566.41;126690;1098;23536;-75
2020/12/14 07:57:58;;;;;;;124.80;74.15;;;;;;;3.73;76.32;100571.64;126617;1098;23366;-75
2020/12/14 08:00:27;;;;;;;125.50;77.12;;;;;;;3.77;76.58;100580.31;126684;1098;26360;-75
2020/12/14 08:03:01;;;;;;;128.00;76.20;;;;;;;3.83;76.63;100588.69;126666;1098;26786;-78
2020/12/14 08:05:29;;;;;;;127.55;76.57;;;;;;;3.91;77.19;100587.14;126572;1098;23386;-76
2020/12/14 08:08:04;;;;;;;119.42;73.85;;;;;;;3.97;77.03;100581.14;126644;1098;26835;-75
2020/12/14 08:10:34;;;;;;;127.92;77.05;;;;;;;4.02;76.94;100585.13;126492;1098;26478;-77
2020/12/14 08:13:13;;;;;;;124.02;74.80;;;;;;;4.13;76.97;100594.08;126698;1098;23395;-76
2020/12/14 08:15:44;;;;;;;132.07;77.72;;;;;;;4.19;77.04;100590.80;126742;1098;23385;-76
2020/12/14 08:18:15;;;;;;;126.97;76.20;;;;;;;4.25;76.87;100592.93;126609;1098;26789;-77
2020/12/14 08:20:44;;;;;;;127.35;75.45;;;;;;;4.27;76.80;100597.19;126302;1098;23393;-77
2020/12/14 08:23:20;;;;;;;131.03;73.60;;;;;;;4.26;76.07;100595.46;126273;1099;26785;-77
2020/12/14 08:25:52;;;;;;;130.22;75.75;;;;;;;4.29;76.69;100595.19;126710;1098;23332;-76
2020/12/14 08:28:34;;;;;;;121.90;72.37;;;;;;;4.35;76.56;100603.70;126697;1098;23331;-75
2020/12/14 08:31:06;;;;;;;121.83;72.23;;;;;;;4.40;76.21;100609.53;126658;1098;23383;-78
2020/12/14 08:33:50;;;;;;;125.92;74.87;;;;;;;4.38;76.39;100612.38;126656;1099;26434;-75
2020/12/14 08:36:20;;;;;;;120.67;74.42;;;;;;;4.41;76.52;100603.13;126442;1098;23447;-75
2020/12/14 08:38:50;;;;;;;147.62;82.97;;;;;;;4.46;76.12;100615.20;126555;1098;23367;-76
2020/12/14 08:41:24;;;;;;;133.82;76.42;;;;;;;4.55;76.37;100608.07;126507;1098;23382;-76
2020/12/14 08:43:53;;;;;;;111.60;62.95;;;;;;;4.58;76.12;100602.36;126572;1098;23358;-76
2020/12/14 08:46:28;;;;;;;142.72;82.05;;;;;;;4.59;75.95;100606.78;126602;1098;23427;-76
2020/12/14 08:49:01;;;;;;;142.80;80.70;;;;;;;4.61;76.22;100612.89;126510;1098;26949;-76
2020/12/14 08:51:35;;;;;;;140.30;84.70;;;;;;;4.62;76.11;100614.58;126485;1098;26875;-76
2020/12/14 08:54:16;;;;;;;138.83;82.70;;;;;;;4.66;75.67;100613.30;126617;1098;23436;-74
2020/12/14 08:56:45;;;;;;;140.05;80.22;;;;;;;4.70;76.26;100622.81;126611;1098;23327;-78
2020/12/14 08:59:19;;;;;;;129.12;76.35;;;;;;;4.74;76.00;100617.10;126571;1099;23431;-77
2020/12/14 09:02:04;;;;;;;133.35;77.82;;;;;;;4.80;75.47;100613.81;126540;1098;23379;-75
2020/12/14 09:04:36;;;;;;;143.45;83.42;;;;;;;4.82;75.98;100619.92;126663;1098;23483;-77
2020/12/14 09:07:05;;;;;;;;;;;;;;;4.86;75.46;100615.93;126723;1098;26532;-79
2020/12/14 09:09:37;;;;;;;144.28;84.15;;;;;;;4.87;75.63;100613.09;126835;1098;21492;-76
2020/12/14 09:12:11;;;;;;;137.93;85.00;;;;;;;4.91;75.41;100619.06;126781;1098;23470;-76
2020/12/14 09:14:40;;;;;;;126.02;81.55;;;;;;;5.00;75.35;100618.16;126687;1099;23332;-74
2020/12/14 09:17:15;;;;;;;124.47;76.07;;;;;;;5.09;75.45;100621.81;126704;1098;23364;-74
2020/12/14 09:19:52;;;;;;;125.50;79.00;;;;;;;5.14;75.78;100618.66;126689;1098;24647;-76
2020/12/14 09:22:22;;;;;;;135.15;77.95;;;;;;;5.15;74.81;100614.97;126497;1098;23597;-74
2020/12/14 09:24:50;;;;;;;167.90;96.32;;;;;;;5.23;75.71;100620.48;126649;1098;23382;-77
2020/12/14 09:27:20;;;;;;;126.62;76.87;;;;;;;5.30;75.68;100616.16;126602;1098;23325;-76
2020/12/14 09:29:48;;;;;;;130.70;78.25;;;;;;;5.32;75.23;100619.57;126572;1098;23395;-76
2020/12/14 09:32:17;;;;;;;128.62;78.60;;;;;;;5.37;74.91;100619.95;126581;1098;23332;-76
2020/12/14 09:34:46;;;;;;;117.03;71.25;;;;;;;5.40;74.70;100625.08;126602;1099;23339;-76
2020/12/14 09:37:14;;;;;;;119.22;71.72;;;;;;;5.39;74.75;100617.11;126584;1098;23324;-75
2020/12/14 09:39:43;;;;;;;123.07;71.72;;;;;;;5.39;74.91;100612.54;126601;1098;23354;-76
2020/12/14 09:42:12;;;;;;;113.97;68.67;;;;;;;5.40;75.07;100614.27;126644;1098;27787;-76
2020/12/14 09:44:40;;;;;;;119.27;73.57;;;;;;;5.45;74.40;100611.09;126301;1099;27056;-75
2020/12/14 09:47:11;;;;;;;123.82;73.52;;;;;;;5.50;75.04;100604.23;126634;1098;26855;-76
2020/12/14 09:49:39;;;;;;;135.93;77.78;;;;;;;5.56;74.72;100602.75;126359;1100;23324;-75
2020/12/14 09:52:08;;;;;;;146.60;90.47;;;;;;;5.59;74.31;100597.05;126685;1098;26788;-75
2020/12/14 09:54:36;;;;;;;180.05;108.10;;;;;;;5.66;74.48;100594.58;126717;1098;23318;-74
2020/12/14 09:57:04;;;;;;;128.02;84.22;;;;;;;5.72;74.02;100594.81;126677;1098;23495;-74
2020/12/14 09:59:32;;;;;;;129.10;76.63;;;;;;;5.77;74.67;100588.92;126737;1098;23434;-76
2020/12/14 10:02:00;;;;;;;138.15;81.30;;;;;;;5.86;73.96;100577.16;126692;1098;26436;-75
2020/12/14 10:04:30;;;;;;;122.50;75.90;;;;;;;5.91;74.08;100585.68;126783;1098;26789;-76
2020/12/14 10:06:58;;;;;;;131.70;74.97;;;;;;;5.94;73.82;100584.52;126666;1098;23380;-76
2020/12/14 10:09:28;;;;;;;116.53;73.75;;;;;;;5.99;73.75;100593.04;126678;1098;23801;-75
2020/12/14 10:11:56;;;;;;;109.60;65.15;;;;;;;5.99;73.27;100592.20;126640;1099;23333;-75
2020/12/14 10:14:24;;;;;;;114.80;71.35;;;;;;;6.01;73.99;100595.60;126756;1098;27689;-75
2020/12/14 10:16:53;;;;;;;121.60;75.17;;;;;;;6.01;73.67;100590.19;126694;1098;23395;-76
2020/12/14 10:19:21;;;;;;;113.92;70.92;;;;;;;6.02;73.81;100594.61;126679;1098;23533;-79
2020/12/14 10:21:50;;;;;;;126.12;73.02;;;;;;;6.02;72.70;100591.91;126655;1098;23382;-74
2020/12/14 10:24:18;;;;;;;119.77;76.15;;;;;;;6.00;73.13;100593.91;126700;1098;26826;-74
2020/12/14 10:26:49;;;;;;;123.47;75.57;;;;;;;5.96;72.80;100584.40;126694;1098;23409;-75
2020/12/14 10:29:22;;;;;;;117.10;70.95;;;;;;;5.95;73.20;100579.97;126773;1098;25168;-74
2020/12/14 10:31:50;;;;;;;122.58;74.55;;;;;;;5.95;72.58;100585.39;126706;1098;24951;-76
2020/12/14 10:34:18;;;;;;;115.25;69.30;;;;;;;5.96;72.90;100582.53;126744;1098;23469;-75
2020/12/14 10:36:47;;;;;;;116.62;67.72;;;;;;;5.99;73.00;100587.62;126799;1098;23443;-77
2020/12/14 10:39:15;;;;;;;114.52;68.35;;;;;;;5.97;73.12;100586.92;126726;1098;23382;-75
2020/12/14 10:41:43;;;;;;;118.45;70.92;;;;;;;5.95;72.66;100585.39;126703;1098;23405;-76
2020/12/14 10:44:11;;;;;;;118.85;71.17;;;;;;;5.98;73.06;100587.80;126790;1098;23397;-75
2020/12/14 10:46:40;;;;;;;123.92;72.90;;;;;;;5.96;72.10;100592.52;126795;1098;26826;-75
2020/12/14 10:49:10;;;;;;;123.03;75.70;;;;;;;5.96;73.25;100593.36;126781;1099;23415;-74
2020/12/14 10:51:39;;;;;;;109.48;62.95;;;;;;;6.00;72.79;100585.79;126810;1099;23394;-74
2020/12/14 10:54:07;;;;;;;119.25;70.00;;;;;;;5.97;72.42;100580.67;126766;1099;23328;-75
2020/12/14 10:56:35;;;;;;;116.82;64.90;;;;;;;5.93;72.48;100583.67;126675;1098;26458;-73
2020/12/14 10:59:04;;;;;;;98.43;60.73;;;;;;;5.93;72.20;100571.96;126722;1098;23345;-73
2020/12/14 11:01:32;;;;;;;114.03;65.15;;;;;;;5.93;72.09;100577.38;126783;1098;23386;-71
2020/12/14 11:04:00;;;;;;;110.20;68.07;;;;;;;5.96;72.58;100576.28;126522;1100;23391;-74
2020/12/14 11:06:32;;;;;;;113.37;69.75;;;;;;;5.98;72.67;100566.98;126836;1098;23458;-73
2020/12/14 11:09:01;;;;;;;115.65;67.37;;;;;;;5.99;72.49;100568.66;126890;1099;23306;-72
2020/12/14 11:11:35;;;;;;;110.78;66.00;;;;;;;6.01;72.69;100566.66;126859;1098;26789;-73
2020/12/14 11:14:03;;;;;;;108.67;65.83;;;;;;;6.04;72.26;100557.36;126902;1098;23382;-75
2020/12/14 11:16:33;;;;;;;117.53;65.92;;;;;;;6.08;72.29;100558.75;126928;1099;23335;-75
2020/12/14 11:19:01;;;;;;;112.45;65.55;;;;;;;6.13;72.34;100567.27;127060;1098;23366;-75